Main page
METAR-TAF:

METAR-TAF

Airports :

Wick, Scotland

Wick Airport

latitude: 58-27N, longitude: 003-05W, elevation: 39 m

Current weather observation

The report was made 40 minutes ago, at 01:50 UTC
Wind 6 kt from the South/Southwest
Temperature 3°C
Humidity 93%
Pressure 1014 hPa
Visibility 10 km or more

METAR: EGPC 170150Z AUTO 21006KT 9999 NCD 03/02 Q1014

Time: 02:30 (02:30 UTC)

Forecast

The report was made 3 hours and 34 minutes ago, at 22:56 UTC
Forecast valid from 17 at 00 UTC to 17 at 09 UTC
Wind 9 kt from the South/Southwest
Visibility 10 km or more
Few clouds at a height of 2500 ft
Temporary
from 17 at 03 UTC to 17 at 09 UTC
Wind 18 kt from the South with gusts up to 28 kt
Visibility: 6000 m
Broken clouds at a height of 900 ft
rain
Probability 30% :
Temporary
from 17 at 04 UTC to 17 at 09 UTC
Visibility: 3000 m
heavy rain

TAF: EGPC 162256Z 1700/1709 21009KT 9999 FEW025 TEMPO 1703/1709 18018G28KT 6000 RA BKN009 PROB30 TEMPO 1704/1709 3000 +RA

Weather observations and forecasts of more than 4000 airports (METAR and TAF reports).

The available stations are represented by yellow and red dots on the map.

Hover mouse over dot to see the name of the station.

Then click to see weather observations and forecasts.

To change the map : click on the green buttons with a black cross to zoom in, on the green button with a dash to zoom out, or on the green arrows for adjacent maps.


METAR-TAF: